x

Pensacola - 115nm Ese Of Pensacola, Fl (42039) Wave Buoy

6:50pm - Sun 19th Apr 2015 All times are CDT. -5 hours from GMT.

  • Sig Wave height 3.9ft
  • Swell Direction
  • Peak Period 7s
  • Average Period 5s
  • Wind
    18mph, 22mph gusts
  • Sea Temp 76°f
  • Air Temp 74°f
  • Sea Pressure 1010.9mb
  • Pensacola - 115nm Ese Of Pensacola, Fl
  • Pensacola - 115nm Ese Of Pensacola, Fl

More Historic Weather Station data

Upgrade to MSW Pro to gain access to the past 30 days of data for over 8000 Wavebouys and Weather Stations around the globe.

Join Pro

Comparision Forecast

View Surf forecast
   
Sun 04/19 6:50pm 4ft 7s 5s 18 22 mph 1010.9mb 76f 74f
5:50pm 3.5ft 6s 5s 16 18 mph 1010.6mb 76f 75f
4:50pm 4ft 6s 5s 13 16 mph 1010.9mb 76f 74f
3:50pm 4.5ft 6s 5s 13 18 mph 1011.7mb 76f 73f
2:50pm 4.5ft 6s 5s 4 7 mph 1011.8mb 76f 73f
1:50pm 5.5ft 6s 5s 4 7 mph 1011.6mb 76f 73f
12:50pm 6ft 5s 5s 13 18 mph 1012mb 76f 72f
11:50am 5.5ft 6s 4s 29 36 mph 1014.5mb 76f 71f
10:50am 4.5ft 5s 4s 11 16 mph 1012mb 77f 72f
9:50am 4.5ft 5s 4s 20 25 mph 1011.4mb 77f 78f
8:50am 4.5ft 5s 4s 20 22 mph 1010.9mb 77f 78f
7:50am 3.5ft 5s 4s 20 25 mph 1010.3mb 77f 78f
6:50am 3ft 5s 4s 20 25 mph 1009.2mb 77f 78f
5:50am 3ft 4s 4s 18 22 mph 1009.7mb 77f 77f
4:50am 2.5ft 5s 4s 18 20 mph 1010.5mb 77f 77f
3:50am 2.5ft 5s 4s 18 20 mph 1010.6mb 77f 77f
2:50am 2ft 4s 4s 13 18 mph 1010.5mb 77f 75f
1:50am 2ft 5s 4s 4
mph
1012.9mb 77f 77f
12:50am 2ft 5s 4s 4
mph
1013.4mb 77f 77f
Sat 04/18 11:50pm 1.6ft 6s 4s 7 9 mph 1013.8mb 77f 77f
10:50pm 1.6ft 5s 4s 9
mph
1013.5mb 77f 77f
9:50pm 2ft 5s 4s 9 11 mph 1013.4mb 77f 77f
8:50pm 1.6ft 6s 4s 9 11 mph 1013.6mb 77f 77f
7:50pm 1.6ft 6s 4s 11 13 mph 1013mb 77f 77f
6:50pm 1.6ft 5s 4s 9
mph
1012.8mb 77f 77f
5:50pm 1.6ft 5s 4s 4 7 mph 1013mb 77f 77f
4:50pm 1.6ft 4s 4s 4
mph
1013.4mb 77f 77f
3:50pm 1.6ft 5s 4s 2
mph
1013.6mb 77f 77f
2:50pm 1.6ft 5s 4s 4
mph
1013.8mb 77f 77f
1:50pm 1.6ft 5s 4s 7
mph
1014mb 77f 77f
12:50pm 1.6ft 4s 4s 7 9 mph 1015mb 77f 77f
11:50am 1.6ft 8s 4s 9
mph
1015.6mb 77f 77f
10:50am 2ft 6s 4s 4
mph
1015.5mb 77f 77f
9:50am 2ft 4s 4s 4 7 mph 1015.7mb 77f 77f
8:50am 2ft 4s 4s 4 7 mph 1015mb 77f 77f
7:50am 2.5ft 4s 4s 7 9 mph 1014.3mb 77f 77f
6:50am 2.5ft 5s 4s 7 9 mph 1014mb 77f 77f
5:50am 2.5ft 4s 5s 7 9 mph 1013.5mb 77f 76f
4:50am 2.5ft 5s 5s 7
mph
1013.3mb 77f 76f
3:50am 3ft 5s 5s 7
mph
1013.4mb 77f 76f
2:50am 3ft 5s 5s 9
mph
1014.1mb 77f 76f
1:50am 3.5ft 5s 5s 7
mph
1014.2mb 77f 76f
12:50am 3.5ft 5s 5s 9
mph
1014.5mb 77f 76f
Fri 04/17 11:50pm 3ft 5s 5s 7 9 mph 1015.1mb 77f 76f
10:50pm 3ft 5s 5s 11
mph
1015.4mb 77f 76f
9:50pm 3ft 5s 5s 9 11 mph 1015.2mb 76f 76f
8:50pm 2.5ft 5s 4s 4 7 mph 1015.3mb 76f 76f
7:50pm 3ft 5s 4s 7
mph
1014.2mb 76f 76f
6:50pm 2.5ft 5s 4s 7 9 mph 1014.3mb 77f 76f
5:50pm 3ft 5s 4s 9 11 mph 1013.9mb 77f 76f
4:50pm 3.5ft 5s 4s 11
mph
1014.3mb 76f 76f
3:50pm 3ft 5s 4s 11 13 mph 1013.9mb 76f 76f
2:50pm 3.5ft 5s 4s 13 16 mph 1014.4mb 76f 76f
1:50pm 3.5ft 6s 4s 13 16 mph 1015.5mb 76f 77f
12:50pm 3ft 6s 4s 18 20 mph 1016mb 76f 77f
11:50am 3ft 5s 5s 13 18 mph 1016.4mb 76f 76f
10:50am 3.5ft 5s 5s 16 18 mph 1017mb 76f 76f
9:50am 3.5ft 6s 5s 13 16 mph 1017.4mb 75f 76f
8:50am 3ft 6s 5s 9 11 mph 1018mb 75f 76f
7:50am 3ft 5s 5s 9 11 mph 1017.8mb 75f 75f
6:50am 3ft 5s 4s 7
mph
1017.8mb 75f 75f
5:50am 3ft 5s 4s 9
mph
1017.1mb 75f 75f
4:50am 3ft 4s 4s 11 13 mph 1017.1mb 75f 76f
3:50am 3.5ft 4s 4s 11 16 mph 1016.7mb 75f 75f
2:50am 3.5ft 5s 4s 16 18 mph 1016.6mb 75f 75f
1:50am 3ft 4s 4s 16 18 mph 1016.9mb 75f 75f
12:50am 2.5ft 4s 4s 16 20 mph 1017.5mb 76f 75f
Thu 04/16 11:50pm 2.5ft 4s 4s 16 18 mph 1017.7mb 76f 76f
10:50pm 2.5ft 4s 4s 13 16 mph 1018mb 76f 76f
9:50pm 2.5ft 4s 4s 16 18 mph 1017.4mb 76f 75f
8:50pm 2.5ft 4s 4s 16 18 mph 1017.4mb 76f 75f
7:50pm 2.5ft 4s 4s 11 13 mph 1017mb 76f 76f
6:50pm 2.5ft 5s 4s 11 13 mph 1016.8mb 76f 76f
5:50pm 2.5ft 4s 4s 13 16 mph 1016.9mb 76f 76f
4:50pm 2.5ft 4s 4s 11 13 mph 1017.2mb 76f 76f
3:50pm 2ft 4s 4s 11 13 mph 1017.6mb 76f 76f
2:50pm 2ft 4s 4s 11 13 mph 1018mb 76f 76f
1:50pm 2.5ft 4s 4s 11
mph
1018.9mb 76f 76f
12:50pm 2ft 4s 4s 11 13 mph 1018.7mb 76f 76f
11:50am 2ft 9s 4s 11 13 mph 1018.7mb 76f 76f
10:50am 2ft 8s 4s 11 13 mph 1018.5mb 76f 76f
9:50am 2ft 9s 4s 16 18 mph 1018.1mb 76f 76f
8:50am 1.6ft 9s 4s 18 20 mph 1017.7mb 76f 76f
7:50am 1.6ft 4s 4s 11 13 mph 1019mb 76f 76f
6:50am 1.6ft 5s 5s 11
mph
1018.9mb 76f 76f
5:50am 1.6ft 6s 4s 7
mph
1018.6mb 76f 76f
4:50am 1.6ft 4s 4s 2 4 mph 1018.6mb 76f 76f
3:50am 2ft 5s 5s 7
mph
1018.3mb 76f 76f
2:50am 2ft 5s 4s 9
mph
1017.7mb 76f 76f
1:50am 2ft 5s 5s 13 16 mph 1017.9mb 76f 76f